createdAt,value
2023-03-11T00:00:47.141Z,4.07
2023-03-11T00:03:15.910Z,5.15
2023-03-11T00:05:44.872Z,7.97
2023-03-11T00:08:15.070Z,7.88
2023-03-11T00:10:44.871Z,0.80
2023-03-11T00:13:14.169Z,8.50
2023-03-11T00:15:43.839Z,4.28
2023-03-11T00:18:12.153Z,2.30
2023-03-11T00:20:42.200Z,1.90
2023-03-11T00:23:11.167Z,7.40
2023-03-11T00:25:38.788Z,5.00
2023-03-11T00:28:11.242Z,5.05
2023-03-11T00:33:05.614Z,5.70
2023-03-11T00:35:35.384Z,4.78
2023-03-11T00:38:07.782Z,3.63
2023-03-11T00:40:36.381Z,2.75
2023-03-11T00:43:04.426Z,6.32
2023-03-11T00:45:31.947Z,5.00
2023-03-11T00:47:59.521Z,4.63
2023-03-11T00:50:30.342Z,6.00
2023-03-11T00:52:58.979Z,3.97
2023-03-11T00:55:29.514Z,4.00
2023-03-11T00:58:00.457Z,2.00
2023-03-11T01:00:28.572Z,2.42
2023-03-11T01:02:55.784Z,4.90
2023-03-11T01:05:26.171Z,4.85
2023-03-11T01:07:53.308Z,5.35
2023-03-11T01:10:20.576Z,4.65
2023-03-11T01:12:47.964Z,4.38
2023-03-11T01:15:28.017Z,6.28
2023-03-11T01:17:54.910Z,3.33
2023-03-11T01:20:22.155Z,7.88
2023-03-11T01:22:49.560Z,3.38
2023-03-11T01:25:18.659Z,5.43
2023-03-11T01:27:45.762Z,9.70
2023-03-11T01:30:22.196Z,7.55
2023-03-11T01:32:49.386Z,3.13
2023-03-11T01:35:19.246Z,3.53
2023-03-11T01:37:46.658Z,4.78
2023-03-11T01:40:18.948Z,7.85
2023-03-11T01:42:45.905Z,2.58
2023-03-11T01:45:49.931Z,3.65
2023-03-11T01:48:16.964Z,7.82
2023-03-11T01:50:49.037Z,2.50
2023-03-11T01:53:17.637Z,2.72
2023-03-11T01:55:46.641Z,4.10
2023-03-11T01:58:19.147Z,6.15
2023-03-11T02:03:27.532Z,4.18
2023-03-11T02:05:55.717Z,4.13
2023-03-11T02:08:23.041Z,5.07
2023-03-11T02:10:51.995Z,5.00
2023-03-11T02:13:19.662Z,3.47
2023-03-11T02:15:46.802Z,6.13
2023-03-11T02:18:15.464Z,5.30
2023-03-11T02:21:05.272Z,2.42
2023-03-11T02:23:47.717Z,11.88
2023-03-11T02:26:22.406Z,4.78
2023-03-11T02:28:50.628Z,5.13
2023-03-11T02:31:17.631Z,5.50
2023-03-11T02:33:46.784Z,0.30
2023-03-11T02:36:33.892Z,5.13
2023-03-11T02:39:01.377Z,4.18
2023-03-11T02:41:29.216Z,3.28
2023-03-11T02:43:56.929Z,3.70
2023-03-11T02:46:23.947Z,5.18
2023-03-11T02:48:51.993Z,4.82
2023-03-11T02:51:21.088Z,6.93
2023-03-11T02:53:51.342Z,5.30
2023-03-11T02:56:18.260Z,4.50
2023-03-11T02:58:45.261Z,2.50
2023-03-11T03:01:12.266Z,4.22
2023-03-11T03:03:39.150Z,5.75
2023-03-11T03:06:06.550Z,2.92
2023-03-11T03:08:33.344Z,5.55
2023-03-11T03:11:01.169Z,2.75
2023-03-11T03:13:28.715Z,3.92
2023-03-11T03:15:55.902Z,5.55
2023-03-11T03:18:23.016Z,2.53
2023-03-11T03:20:51.594Z,5.20
2023-03-11T03:23:19.003Z,4.93
2023-03-11T03:25:46.333Z,2.22
2023-03-11T03:28:16.329Z,3.00
2023-03-11T03:30:43.307Z,5.75
2023-03-11T03:33:10.216Z,3.42
2023-03-11T03:35:42.464Z,4.60
2023-03-11T03:38:09.488Z,2.45
2023-03-11T03:40:39.140Z,6.30
2023-03-11T03:43:06.340Z,4.63
2023-03-11T03:45:33.217Z,4.18
2023-03-11T03:48:00.090Z,3.88
2023-03-11T03:50:27.949Z,3.67
2023-03-11T03:52:54.792Z,4.22
2023-03-11T03:55:21.540Z,7.40
2023-03-11T03:57:48.474Z,4.30
2023-03-11T04:00:16.351Z,4.50
2023-03-11T04:02:43.486Z,5.80
2023-03-11T04:05:10.799Z,5.45
2023-03-11T04:07:37.641Z,5.03
2023-03-11T04:10:06.382Z,5.78
2023-03-11T04:12:35.371Z,3.45
2023-03-11T04:15:03.647Z,7.93
2023-03-11T04:17:31.681Z,5.40
2023-03-11T04:19:58.385Z,3.83
2023-03-11T04:22:25.202Z,8.60
2023-03-11T04:24:52.040Z,2.90
2023-03-11T04:27:19.391Z,6.78
2023-03-11T04:29:46.494Z,4.45
2023-03-11T04:32:13.432Z,4.40
2023-03-11T04:34:41.047Z,3.25
2023-03-11T04:37:07.964Z,3.80
2023-03-11T04:39:34.799Z,6.93
2023-03-11T04:42:03.895Z,5.00
2023-03-11T04:44:32.102Z,4.32
2023-03-11T04:46:58.948Z,9.13
2023-03-11T04:49:25.940Z,5.32
2023-03-11T04:51:52.784Z,6.63
2023-03-11T04:54:20.858Z,3.83
2023-03-11T04:56:47.698Z,7.45
2023-03-11T04:59:14.594Z,4.32
2023-03-11T05:01:41.510Z,6.47
2023-03-11T05:04:08.596Z,6.80
2023-03-11T05:06:35.686Z,6.50
2023-03-11T05:09:02.421Z,2.60
2023-03-11T05:11:29.322Z,5.22
2023-03-11T05:13:56.363Z,7.10
2023-03-11T05:16:23.447Z,4.50
2023-03-11T05:18:52.716Z,4.22
2023-03-11T05:21:19.558Z,5.18
2023-03-11T05:23:46.399Z,4.13
2023-03-11T05:26:13.112Z,2.47
2023-03-11T05:28:40.047Z,3.65
2023-03-11T05:31:10.840Z,4.43
2023-03-11T05:33:37.759Z,6.68
2023-03-11T05:36:10.350Z,6.95
2023-03-11T05:38:39.542Z,4.03
2023-03-11T05:41:06.795Z,4.18
2023-03-11T05:43:33.792Z,4.35
2023-03-11T05:46:00.949Z,4.55
2023-03-11T05:48:27.992Z,3.13
2023-03-11T05:50:54.812Z,4.25
2023-03-11T05:53:21.984Z,4.43
2023-03-11T05:55:57.839Z,3.90
2023-03-11T05:58:24.919Z,6.47
2023-03-11T06:00:51.987Z,4.25
2023-03-11T06:03:18.933Z,7.63
2023-03-11T06:05:49.725Z,9.15
2023-03-11T06:08:17.885Z,5.47
2023-03-11T06:10:46.280Z,4.95
2023-03-11T06:13:14.182Z,5.25
2023-03-11T06:15:41.156Z,4.85
2023-03-11T06:18:08.076Z,5.65
2023-03-11T06:20:34.811Z,3.50
2023-03-11T06:23:01.676Z,3.03
2023-03-11T06:25:28.469Z,5.40
2023-03-11T06:27:55.446Z,3.90
2023-03-11T06:30:23.889Z,3.08
2023-03-11T06:32:51.887Z,3.65
2023-03-11T06:35:18.993Z,4.63
2023-03-11T06:37:46.302Z,5.75
2023-03-11T06:40:14.571Z,8.75
2023-03-11T06:42:41.711Z,5.40
2023-03-11T06:45:10.305Z,4.95
2023-03-11T06:47:37.203Z,3.10
2023-03-11T06:50:07.021Z,6.70
2023-03-11T06:52:33.907Z,7.05
2023-03-11T06:55:00.967Z,8.45
2023-03-11T06:57:28.152Z,10.70
2023-03-11T06:59:55.105Z,9.93
2023-03-11T07:02:21.986Z,12.88
2023-03-11T07:04:53.331Z,8.73
2023-03-11T07:07:21.698Z,7.82
2023-03-11T07:09:50.313Z,15.07
2023-03-11T07:12:17.830Z,6.13
2023-03-11T07:14:44.809Z,6.10
2023-03-11T07:17:11.614Z,8.93
2023-03-11T07:19:38.808Z,6.93
2023-03-11T07:22:06.156Z,6.63
2023-03-11T07:24:33.064Z,9.02
2023-03-11T07:26:59.999Z,5.50
2023-03-11T07:29:26.802Z,5.63
2023-03-11T07:31:56.341Z,7.10
2023-03-11T07:34:23.182Z,8.15
2023-03-11T07:36:50.152Z,9.77
2023-03-11T07:39:19.043Z,7.10
2023-03-11T07:41:47.245Z,6.95
2023-03-11T07:44:15.901Z,5.32
2023-03-11T07:46:43.892Z,7.80
2023-03-11T07:49:11.174Z,9.57
2023-03-11T07:51:41.131Z,7.60
2023-03-11T07:54:07.983Z,6.03
2023-03-11T07:56:35.991Z,6.30
2023-03-11T07:59:04.676Z,3.20
2023-03-11T08:01:36.769Z,8.02
2023-03-11T08:04:08.756Z,3.72
2023-03-11T08:06:37.085Z,4.93
2023-03-11T08:09:07.097Z,5.03
2023-03-11T08:11:33.964Z,4.72
2023-03-11T08:14:00.960Z,3.65
2023-03-11T08:16:28.504Z,5.85
2023-03-11T08:18:55.727Z,7.53
2023-03-11T08:21:25.343Z,9.32
2023-03-11T08:23:53.177Z,6.47
2023-03-11T08:26:22.096Z,5.80
2023-03-11T08:28:49.648Z,3.25
2023-03-11T08:31:37.706Z,6.20
2023-03-11T08:34:08.752Z,7.70
2023-03-11T08:36:35.913Z,5.18
2023-03-11T08:39:04.579Z,5.70
2023-03-11T08:41:32.211Z,2.42
2023-03-11T08:43:59.672Z,6.13
2023-03-11T08:46:34.091Z,7.30
2023-03-11T08:49:01.852Z,3.45
2023-03-11T08:51:33.460Z,7.72
2023-03-11T08:54:01.316Z,3.47
2023-03-11T08:56:28.320Z,3.15
2023-03-11T08:58:55.153Z,6.60
2023-03-11T09:01:24.600Z,6.43
2023-03-11T09:03:51.969Z,5.38
2023-03-11T09:06:19.576Z,4.28
2023-03-11T09:08:47.134Z,5.43
2023-03-11T09:11:15.309Z,3.33
2023-03-11T09:13:45.531Z,3.55
2023-03-11T09:16:18.452Z,4.20
2023-03-11T09:18:45.813Z,3.17
2023-03-11T09:21:13.067Z,2.55
2023-03-11T09:23:42.797Z,3.10
2023-03-11T09:26:10.802Z,2.75
2023-03-11T09:28:37.644Z,3.50
2023-03-11T09:31:04.708Z,1.15
2023-03-11T09:33:31.643Z,3.58
2023-03-11T09:35:59.192Z,3.08
2023-03-11T09:38:26.180Z,2.72
2023-03-11T09:41:28.217Z,3.70
2023-03-11T09:44:22.854Z,6.32
2023-03-11T09:46:49.804Z,2.63
2023-03-11T09:49:23.555Z,3.90
2023-03-11T09:52:12.976Z,3.15
2023-03-11T09:54:45.300Z,1.48
2023-03-11T09:57:30.886Z,7.57
2023-03-11T10:00:00.026Z,4.47
2023-03-11T10:02:28.389Z,3.42
2023-03-11T10:05:18.942Z,4.82
2023-03-11T10:07:51.785Z,2.33
2023-03-11T10:10:19.242Z,4.60
2023-03-11T10:12:58.246Z,4.88
2023-03-11T10:15:27.927Z,6.13
2023-03-11T10:18:14.520Z,1.75
2023-03-11T10:21:00.993Z,4.60
2023-03-11T10:23:27.801Z,4.00
2023-03-11T10:26:01.634Z,4.70
2023-03-11T10:28:35.622Z,5.43
2023-03-11T10:31:42.992Z,3.25
2023-03-11T10:34:22.294Z,4.75
2023-03-11T10:37:20.104Z,6.28
2023-03-11T10:39:50.389Z,3.30
2023-03-11T10:42:22.595Z,5.13
2023-03-11T10:44:51.625Z,3.90
2023-03-11T10:47:24.977Z,5.38
2023-03-11T10:49:55.297Z,5.50
2023-03-11T10:52:22.092Z,1.67
2023-03-11T10:55:00.656Z,5.35
2023-03-11T10:57:33.033Z,3.75
2023-03-11T11:02:43.634Z,6.95
2023-03-11T11:07:51.125Z,5.40
2023-03-11T11:10:23.295Z,7.18
2023-03-11T11:13:08.442Z,7.75
2023-03-11T11:15:40.225Z,5.03
2023-03-11T11:18:18.283Z,5.45
2023-03-11T11:21:03.207Z,4.72
2023-03-11T11:24:02.295Z,2.65
2023-03-11T11:26:29.144Z,4.85
2023-03-11T11:29:15.602Z,5.28
2023-03-11T11:31:46.043Z,1.70
2023-03-11T11:34:34.832Z,6.72
2023-03-11T11:37:04.594Z,4.88
2023-03-11T11:39:39.320Z,4.43
2023-03-11T11:42:08.772Z,4.70
2023-03-11T11:44:36.632Z,3.65
2023-03-11T11:47:17.920Z,6.25
2023-03-11T11:49:54.438Z,5.60
2023-03-11T11:52:27.270Z,4.57
2023-03-11T11:54:59.748Z,4.68
2023-03-11T11:57:26.790Z,8.82
2023-03-11T11:59:54.521Z,2.60
2023-03-11T12:02:31.538Z,3.10
2023-03-11T12:05:31.584Z,3.78
2023-03-11T12:08:10.722Z,7.85
2023-03-11T12:10:40.554Z,22.38
2023-03-11T12:13:46.617Z,6.15
2023-03-11T12:16:36.861Z,3.78
2023-03-11T12:19:13.014Z,8.52
2023-03-11T12:21:58.496Z,5.13
2023-03-11T12:24:28.200Z,3.05
2023-03-11T12:27:04.668Z,4.70
2023-03-11T12:29:42.227Z,3.63
2023-03-11T12:32:37.423Z,2.85
2023-03-11T12:35:19.883Z,2.58
2023-03-11T12:40:45.857Z,3.05
2023-03-11T12:43:30.834Z,6.43
2023-03-11T12:46:01.636Z,2.63
2023-03-11T12:48:31.635Z,2.90
2023-03-11T12:50:59.255Z,5.65
2023-03-11T12:53:48.304Z,2.42
2023-03-11T12:56:36.309Z,4.60
2023-03-11T12:59:12.377Z,3.55
2023-03-11T13:02:05.712Z,5.70
2023-03-11T13:04:41.546Z,5.38
2023-03-11T13:07:25.890Z,2.58
2023-03-11T13:10:15.372Z,1.88
2023-03-11T13:12:49.743Z,3.42
2023-03-11T13:15:28.771Z,4.68
2023-03-11T13:18:05.445Z,2.75
2023-03-11T13:20:44.335Z,2.17
2023-03-11T13:23:14.554Z,2.33
2023-03-11T13:25:47.268Z,3.97
2023-03-11T13:28:46.677Z,3.70
2023-03-11T13:31:22.616Z,2.42
2023-03-11T13:33:52.926Z,5.30
2023-03-11T13:36:19.749Z,4.68
2023-03-11T13:39:19.153Z,6.63
2023-03-11T13:41:46.711Z,8.93
2023-03-11T13:44:28.764Z,6.75
2023-03-11T13:47:18.249Z,5.22
2023-03-11T13:50:20.313Z,5.13
2023-03-11T13:52:55.299Z,7.03
2023-03-11T13:55:44.305Z,3.60
2023-03-11T13:58:15.658Z,5.63
2023-03-11T14:00:50.456Z,1.77
2023-03-11T14:03:22.145Z,3.80
2023-03-11T14:06:11.019Z,3.60
2023-03-11T14:08:39.498Z,2.15
2023-03-11T14:11:12.169Z,5.20
2023-03-11T14:13:43.606Z,6.55
2023-03-11T14:16:21.778Z,5.03
2023-03-11T14:19:04.289Z,6.43
2023-03-11T14:21:34.440Z,4.00
2023-03-11T14:24:07.291Z,2.90
2023-03-11T14:26:35.449Z,3.20
2023-03-11T14:29:08.734Z,3.85
2023-03-11T14:31:41.537Z,3.33
2023-03-11T14:34:11.043Z,10.73
2023-03-11T14:36:56.987Z,6.30
2023-03-11T14:39:34.176Z,3.03
2023-03-11T14:42:13.709Z,3.83
2023-03-11T14:44:43.420Z,4.22
2023-03-11T14:47:24.477Z,7.95
2023-03-11T14:49:52.343Z,3.05
2023-03-11T14:52:33.495Z,6.20
2023-03-11T14:55:02.361Z,4.22
2023-03-11T14:57:42.723Z,3.38
2023-03-11T15:00:19.448Z,3.38
2023-03-11T15:03:20.317Z,3.03
2023-03-11T15:05:52.257Z,2.75
2023-03-11T15:08:23.041Z,5.63
2023-03-11T15:11:04.119Z,4.70
2023-03-11T15:13:31.156Z,3.65
2023-03-11T15:15:59.964Z,3.92
2023-03-11T15:18:39.533Z,6.57
2023-03-11T15:21:19.496Z,5.88
2023-03-11T15:23:50.437Z,2.10
2023-03-11T15:26:26.644Z,4.93
2023-03-11T15:28:56.767Z,5.15
2023-03-11T15:31:23.524Z,7.50
2023-03-11T15:33:54.460Z,2.65
2023-03-11T15:36:39.441Z,3.38
2023-03-11T15:39:14.602Z,3.72
2023-03-11T15:41:59.829Z,2.60
2023-03-11T15:44:42.060Z,3.80
2023-03-11T15:47:20.392Z,3.28
2023-03-11T15:49:47.911Z,4.95
2023-03-11T15:52:15.571Z,2.55
2023-03-11T15:54:54.510Z,4.85
2023-03-11T15:57:28.357Z,7.63
2023-03-11T15:59:58.020Z,3.38
2023-03-11T16:02:27.996Z,3.38
2023-03-11T16:04:56.131Z,4.40
2023-03-11T16:07:36.760Z,4.22
2023-03-11T16:10:07.185Z,4.38
2023-03-11T16:12:34.176Z,4.00
2023-03-11T16:15:01.440Z,4.47
2023-03-11T16:17:39.564Z,5.65
2023-03-11T16:20:13.761Z,5.68
2023-03-11T16:22:40.848Z,6.55
2023-03-11T16:25:30.540Z,5.18
2023-03-11T16:27:57.904Z,7.00
2023-03-11T16:30:26.822Z,4.82
2023-03-11T16:32:54.091Z,3.72
2023-03-11T16:35:21.285Z,5.50
2023-03-11T16:37:48.906Z,5.90
2023-03-11T16:40:27.350Z,4.85
2023-03-11T16:43:02.243Z,6.38
2023-03-11T16:45:29.386Z,6.65
2023-03-11T16:47:56.349Z,5.43
2023-03-11T16:50:27.202Z,4.22
2023-03-11T16:52:54.987Z,7.00
2023-03-11T16:55:22.644Z,2.53
2023-03-11T16:57:49.811Z,5.45
2023-03-11T17:00:18.250Z,5.85
2023-03-11T17:02:45.610Z,7.72
2023-03-11T17:05:15.184Z,5.25
2023-03-11T17:07:42.325Z,5.47
2023-03-11T17:10:11.496Z,4.22
2023-03-11T17:12:40.996Z,5.93
2023-03-11T17:15:08.605Z,5.82
2023-03-11T17:17:35.736Z,6.10
2023-03-11T17:20:07.157Z,4.32
2023-03-11T17:22:34.102Z,7.17
2023-03-11T17:25:02.077Z,4.07
2023-03-11T17:27:32.772Z,11.43
2023-03-11T17:30:01.196Z,6.03
2023-03-11T17:32:31.340Z,6.15
2023-03-11T17:34:58.606Z,7.55
2023-03-11T17:37:26.120Z,6.63
2023-03-11T17:39:53.272Z,5.80
2023-03-11T17:42:20.360Z,4.30
2023-03-11T17:44:51.769Z,5.57
2023-03-11T17:47:19.874Z,3.90
2023-03-11T17:49:49.094Z,5.43
2023-03-11T17:52:16.099Z,4.78
2023-03-11T17:54:42.956Z,8.60
2023-03-11T17:57:09.815Z,11.02
2023-03-11T17:59:36.707Z,4.60
2023-03-11T18:02:03.848Z,5.32
2023-03-11T18:04:30.644Z,7.90
2023-03-11T18:06:57.481Z,9.35
2023-03-11T18:09:24.381Z,7.20
2023-03-11T18:11:51.188Z,5.47
2023-03-11T18:14:18.073Z,8.50
2023-03-11T18:16:45.161Z,8.07
2023-03-11T18:19:13.037Z,8.18
2023-03-11T18:21:40.132Z,5.13
2023-03-11T18:24:07.609Z,4.95
2023-03-11T18:26:35.791Z,6.88
2023-03-11T18:29:02.713Z,5.32
2023-03-11T18:31:30.939Z,3.88
2023-03-11T18:34:00.207Z,4.97
2023-03-11T18:36:36.190Z,4.70
2023-03-11T18:39:05.094Z,9.05
2023-03-11T18:41:34.361Z,3.38
2023-03-11T18:44:01.657Z,5.43
2023-03-11T18:46:33.951Z,8.60
2023-03-11T18:49:02.487Z,4.03
2023-03-11T18:51:34.039Z,3.50
2023-03-11T18:54:01.596Z,4.37
2023-03-11T18:56:31.125Z,5.55
2023-03-11T18:59:01.531Z,3.85
2023-03-11T19:01:28.756Z,4.63
2023-03-11T19:03:57.982Z,5.25
2023-03-11T19:06:27.121Z,2.90
2023-03-11T19:08:54.694Z,4.57
2023-03-11T19:11:23.889Z,7.70
2023-03-11T19:13:51.154Z,6.53
2023-03-11T19:16:21.478Z,8.25
2023-03-11T19:18:48.733Z,7.13
2023-03-11T19:21:16.556Z,12.07
2023-03-11T19:23:44.316Z,12.73
2023-03-11T19:26:11.607Z,6.60
2023-03-11T19:28:38.518Z,6.38
2023-03-11T19:31:06.015Z,4.82
2023-03-11T19:33:33.619Z,7.43
2023-03-11T19:36:03.244Z,10.15
2023-03-11T19:38:30.429Z,8.25
2023-03-11T19:41:07.054Z,7.53
2023-03-11T19:43:35.901Z,5.13
2023-03-11T19:46:07.199Z,9.20
2023-03-11T19:48:34.463Z,10.02
2023-03-11T19:51:02.974Z,12.32
2023-03-11T19:53:29.978Z,11.75
2023-03-11T19:55:57.775Z,17.42
2023-03-11T19:58:29.947Z,16.08
2023-03-11T20:00:58.491Z,20.48
2023-03-11T20:03:26.001Z,17.65
2023-03-11T20:05:55.815Z,20.45
2023-03-11T20:08:24.795Z,23.08
2023-03-11T20:10:53.198Z,27.25
2023-03-11T20:13:21.683Z,45.92
2023-03-11T20:15:48.621Z,29.13
2023-03-11T20:18:15.645Z,28.40
2023-03-11T20:20:43.460Z,41.45
2023-03-11T20:23:11.802Z,25.63
2023-03-11T20:25:42.316Z,24.45
2023-03-11T20:28:09.677Z,19.40
2023-03-11T20:30:38.400Z,23.10
2023-03-11T20:33:06.078Z,24.25
2023-03-11T20:35:33.483Z,18.48
2023-03-11T20:38:03.298Z,24.52
2023-03-11T20:40:31.778Z,16.13
2023-03-11T20:42:59.011Z,19.60
2023-03-11T20:45:26.101Z,36.58
2023-03-11T20:47:54.144Z,35.38
2023-03-11T20:50:22.315Z,25.13
2023-03-11T20:52:50.621Z,19.73
2023-03-11T20:55:17.752Z,16.65
2023-03-11T20:57:44.772Z,18.98
2023-03-11T21:00:13.886Z,12.82
2023-03-11T21:02:42.514Z,15.23
2023-03-11T21:05:10.795Z,13.30
2023-03-11T21:07:38.310Z,11.82
2023-03-11T21:10:07.093Z,10.75
2023-03-11T21:12:33.938Z,11.15
2023-03-11T21:15:02.234Z,10.85
2023-03-11T21:17:29.391Z,9.63
2023-03-11T21:19:56.212Z,9.50
2023-03-11T21:22:23.244Z,8.38
2023-03-11T21:24:54.376Z,9.43
2023-03-11T21:27:26.303Z,7.15
2023-03-11T21:29:54.751Z,8.60
2023-03-11T21:32:22.712Z,11.10
2023-03-11T21:34:51.315Z,7.45
2023-03-11T21:37:18.340Z,7.70
2023-03-11T21:39:46.137Z,9.50
2023-03-11T21:42:13.308Z,9.98
2023-03-11T21:44:41.481Z,13.35
2023-03-11T21:47:08.867Z,11.50
2023-03-11T21:49:37.402Z,12.13
2023-03-11T21:52:04.959Z,13.27
2023-03-11T21:54:31.869Z,44.05
2023-03-11T21:56:59.155Z,30.92
2023-03-11T21:59:30.030Z,19.17
2023-03-11T22:02:01.342Z,20.77
2023-03-11T22:04:30.682Z,16.67
2023-03-11T22:06:57.779Z,16.65
2023-03-11T22:09:26.305Z,18.52
2023-03-11T22:11:53.506Z,16.05
2023-03-11T22:14:22.742Z,20.00
2023-03-11T22:16:49.576Z,20.58
2023-03-11T22:19:16.915Z,18.63
2023-03-11T22:21:43.881Z,18.00
2023-03-11T22:24:12.377Z,24.10
2023-03-11T22:26:39.313Z,18.17
2023-03-11T22:29:08.834Z,15.68
2023-03-11T22:31:36.045Z,18.85
2023-03-11T22:34:02.773Z,18.27
2023-03-11T22:36:29.668Z,18.63
2023-03-11T22:38:57.265Z,17.15
2023-03-11T22:41:24.745Z,14.93
2023-03-11T22:43:53.155Z,16.15
2023-03-11T22:46:20.368Z,15.63
2023-03-11T22:48:47.503Z,16.90
2023-03-11T22:51:15.192Z,13.23
2023-03-11T22:53:42.169Z,13.32
2023-03-11T22:56:15.485Z,13.75
2023-03-11T22:58:43.027Z,13.38
2023-03-11T23:01:12.009Z,17.70
2023-03-11T23:03:39.763Z,9.73
2023-03-11T23:06:12.053Z,9.77
2023-03-11T23:08:39.041Z,9.40
2023-03-11T23:11:09.989Z,7.28
2023-03-11T23:13:37.642Z,7.68
2023-03-11T23:16:10.780Z,11.35
2023-03-11T23:18:37.967Z,8.50
2023-03-11T23:21:07.281Z,5.70
2023-03-11T23:23:34.091Z,4.32
2023-03-11T23:26:01.021Z,6.38
2023-03-11T23:28:27.968Z,4.72
2023-03-11T23:30:54.962Z,6.38
2023-03-11T23:33:22.116Z,4.82
2023-03-11T23:35:48.892Z,7.85
2023-03-11T23:38:15.827Z,9.98
2023-03-11T23:40:42.688Z,8.50
2023-03-11T23:43:09.642Z,11.57
2023-03-11T23:45:36.581Z,9.88
2023-03-11T23:48:03.534Z,13.82
2023-03-11T23:50:30.448Z,15.07
2023-03-11T23:52:57.210Z,16.45
2023-03-11T23:55:24.323Z,22.50
2023-03-11T23:57:51.184Z,19.83
